Merced, CA

7:10 PM PDT en Octubre 20, 2014 (GMT -0700)
Merced Municipal-Macready | Change Station
CLOSE
Current Station
Aeropuerto
Location: Merced,
Altura: 154 ft
Estaciones meteorológicas cercanas

Alt 154 ft 37.28 °N, 120.51 °W | Updated 17 minutes ago

Despejado
Despejado
68 ° F
Sensación térmica 68 ° F
N
17
Viento Variable Viento desde NNO

Hoy
Alta -- | Baja -- ° F
--% Posibilidad de precipitaciones
Ayer
Alta -- | Baja -- ° F
Precip. -- pul
7:14 AM 6:18 PM
Creciente menguante, 8% visible
Presión 29.94 pul
Visibilidad 10.0 Millas
Nubes Muy nublado 4700 ft
Punto de rocío 49 ° F
Humedad 50%
Precipitaciones 0.00 pul
Espesor de la nieve No disponible.
UV 0 de una escala de 12
Polen 3.50 de una escala de 12
Calidad del aire No disponible.
Flu Activity Sporadic
METAR KMCE 210153Z AUTO 33015KT 10SM BKN047 20/09 A2994 RMK AO2 SLP139 T02000094

More Conditions Fewer Conditions

Presión 29.94 pul
Visibilidad 10.0 Millas
Nubes Muy nublado 4700 ft
Punto de rocío 49 ° F
Humedad 50%
Precipitaciones 0.00 pul
Espesor de la nieve No disponible.
UV 0 de una escala de 12
Polen 3.50 de una escala de 12
Calidad del aire No disponible.
Flu Activity Sporadic
METAR KMCE 210153Z AUTO 33015KT 10SM BKN047 20/09 A2994 RMK AO2 SLP139 T02000094

More Conditions Fewer Conditions

10-Day Weather Forecast

Almanac

Astronomía

Oct. 20, 2014 Salida Puesta
Hora real 7:14 AM PDT 6:18 PM PDT
Crepúsculo civil 6:48 AM PDT 6:44 PM PDT
Crepúsculo náutico 6:17 AM PDT 7:15 PM PDT
Crepúsculo astronómico 5:47 AM PDT 7:45 PM PDT
Luna 4:11 AM PDT (10/20) 4:40 PM PDT (10/20)
Horas de luz 11h 56m
Horas de luz
11h 03m
Tomorrow will be 2m 14s shorter.
Creciente menguante, 8% of the Moon is Illuminated
Hoy
Creciente menguante
Oct 23
Nueva
Oct 30
Cuarto creciente
Nov 6
Luna llena
Nov 14
Cuarto menguante

Extremos de hoy

Máximos del estado Bajos del estado

Community

WunderPhotos

Upload Photos

1,763,572 ¡fotos cargadas!

Nearby

Calidad del aire

  Calidad del aire Índice AQ Contaminante
Lunes Buena
PM2.5
Martes Moderada
PM10
Miércoles Moderada
PM10
Jueves Moderada
PM10
Viernes Moderada
PM10
Sábado Moderada
PM10

Grosos de nieve

Estación Profundido Altura
Leavitt Lake 0 in 9400 ft
Leavitt Meadows 0 in 7200 ft
Summit Meadow 0 in 9122 ft
Blue Lakes 0 in 8000 ft
Forestdale Creek 0 in 8029 ft

Actividad de terremotos

Ciudad Distance Mag. Tiempo y dato
Smith Valley, Nevada 112 Millas 2.9 10:59 AM PDT
2014-10-18
East Foothills, California 67 Millas 2.6 8:16 AM PDT
2014-10-18
Magnitud mínima muestra es 2,5.

Temperaturas de aguas costeras

Lugar Temperatura
Sin partes meteorológicos de las estaciones

Estaciones meteorológicas cercanas